Time,TemperatureF,DewpointF,PressureIn,WindDirection,WindDirectionDegrees,WindSpeedMPH,WindSpeedGustMPH,Humidity,HourlyPrecipIn,Conditions,Clouds,dailyrainin,SolarRadiationWatts/m^2,SoftwareType,DateUTC
2013-02-14 00:06:00,32.0,23.0,29.72,North,355,0.0,-999.0,69,-99.99,,,0.00,0,weatherlink.com 1.10,2013-02-14 05:06:00,
2013-02-14 00:21:00,31.8,23.0,29.73,North,351,0.0,-999.0,70,-99.99,,,0.00,0,weatherlink.com 1.10,2013-02-14 05:21:00,
2013-02-14 00:36:00,31.6,23.0,29.71,NNW,346,0.0,-999.0,70,-99.99,,,0.00,0,weatherlink.com 1.10,2013-02-14 05:36:00,
2013-02-14 00:51:00,31.4,23.0,29.70,NNW,331,1.0,-999.0,71,-99.99,,,0.00,0,weatherlink.com 1.10,2013-02-14 05:51:00,
2013-02-14 01:06:00,31.1,23.0,29.69,NNW,340,0.0,-999.0,72,-99.99,,,0.00,0,weatherlink.com 1.10,2013-02-14 06:06:00,
2013-02-14 01:21:00,30.8,23.0,29.69,NNW,345,3.0,-999.0,72,-99.99,,,0.00,0,weatherlink.com 1.10,2013-02-14 06:21:00,
2013-02-14 01:36:00,30.6,23.0,29.71,NNW,345,0.0,-999.0,73,-99.99,,,0.00,0,weatherlink.com 1.10,2013-02-14 06:36:00,
2013-02-14 01:51:00,30.4,22.0,29.74,NNW,345,0.0,-999.0,72,-99.99,,,0.00,0,weatherlink.com 1.10,2013-02-14 06:51:00,
2013-02-14 02:06:00,30.7,23.0,29.75,NNW,345,0.0,-999.0,72,-99.99,,,0.00,0,weatherlink.com 1.10,2013-02-14 07:06:00,
2013-02-14 02:21:00,30.7,22.0,29.75,NNW,345,0.0,-999.0,71,-99.99,,,0.00,0,weatherlink.com 1.10,2013-02-14 07:21:00,
2013-02-14 02:36:00,30.7,22.0,29.75,NNW,345,0.0,-999.0,71,-99.99,,,0.00,0,weatherlink.com 1.10,2013-02-14 07:36:00,
2013-02-14 02:51:00,30.7,22.0,29.74,NNW,345,0.0,-999.0,71,-99.99,,,0.00,0,weatherlink.com 1.10,2013-02-14 07:51:00,
2013-02-14 03:06:00,30.8,22.0,29.74,NNW,343,2.0,-999.0,70,-99.99,,,0.00,0,weatherlink.com 1.10,2013-02-14 08:06:00,
2013-02-14 03:21:00,30.6,23.0,29.74,NW,304,0.0,-999.0,72,-99.99,,,0.00,0,weatherlink.com 1.10,2013-02-14 08:21:00,
2013-02-14 03:36:00,30.5,22.0,29.74,NNW,329,0.0,-999.0,71,-99.99,,,0.00,0,weatherlink.com 1.10,2013-02-14 08:36:00,
2013-02-14 03:51:00,30.6,22.0,29.75,NNW,329,0.0,-999.0,71,-99.99,,,0.00,0,weatherlink.com 1.10,2013-02-14 08:51:00,
2013-02-14 04:06:00,30.6,22.0,29.75,NNW,329,0.0,-999.0,70,-99.99,,,0.00,0,weatherlink.com 1.10,2013-02-14 09:06:00,
2013-02-14 04:21:00,30.4,22.0,29.75,NW,313,0.0,-999.0,71,-99.99,,,0.00,0,weatherlink.com 1.10,2013-02-14 09:21:00,
2013-02-14 04:36:00,30.4,22.0,29.75,NW,313,0.0,-999.0,70,-99.99,,,0.00,0,weatherlink.com 1.10,2013-02-14 09:36:00,
2013-02-14 04:51:00,30.0,22.0,29.76,NW,313,0.0,-999.0,71,-99.99,,,0.00,0,weatherlink.com 1.10,2013-02-14 09:51:00,
2013-02-14 05:06:00,30.1,21.0,29.77,NW,313,0.0,-999.0,70,-99.99,,,0.00,0,weatherlink.com 1.10,2013-02-14 10:06:00,
2013-02-14 05:21:00,30.2,22.0,29.77,NW,313,0.0,-999.0,70,-99.99,,,0.00,0,weatherlink.com 1.10,2013-02-14 10:21:00,
2013-02-14 05:36:00,30.0,21.0,29.77,NW,313,0.0,-999.0,69,-99.99,,,0.00,0,weatherlink.com 1.10,2013-02-14 10:36:00,
2013-02-14 05:51:00,30.2,21.0,29.77,NNW,337,0.0,-999.0,69,-99.99,,,0.00,0,weatherlink.com 1.10,2013-02-14 10:51:00,
2013-02-14 06:06:00,29.9,21.0,29.77,NNW,338,3.0,-999.0,70,-99.99,,,0.00,0,weatherlink.com 1.10,2013-02-14 11:06:00,
2013-02-14 06:21:00,29.7,21.0,29.77,NNW,337,0.0,-999.0,70,-99.99,,,0.00,0,weatherlink.com 1.10,2013-02-14 11:21:00,
2013-02-14 06:36:00,29.7,20.0,29.78,NNW,337,0.0,-999.0,68,-99.99,,,0.00,0,weatherlink.com 1.10,2013-02-14 11:36:00,
2013-02-14 06:51:00,29.7,20.0,29.79,NNW,338,0.0,-999.0,68,-99.99,,,0.00,9,weatherlink.com 1.10,2013-02-14 11:51:00,
2013-02-14 07:06:00,29.6,20.0,29.80,NNW,337,0.0,-999.0,68,-99.99,,,0.00,18,weatherlink.com 1.10,2013-02-14 12:06:00,
2013-02-14 07:21:00,29.6,21.0,29.80,NNW,338,0.0,-999.0,70,-99.99,,,0.00,23,weatherlink.com 1.10,2013-02-14 12:21:00,
2013-02-14 07:36:00,29.1,21.0,29.81,NNW,338,2.0,-999.0,72,-99.99,,,0.00,33,weatherlink.com 1.10,2013-02-14 12:36:00,
2013-02-14 07:51:00,29.3,21.0,29.82,NNW,337,0.0,-999.0,72,-99.99,,,0.00,79,weatherlink.com 1.10,2013-02-14 12:51:00,
2013-02-14 08:06:00,30.8,22.0,29.82,NNW,337,0.0,-999.0,69,-99.99,,,0.00,179,weatherlink.com 1.10,2013-02-14 13:06:00,
2013-02-14 08:21:00,31.7,21.0,29.81,NW,315,1.0,-999.0,66,-99.99,,,0.00,179,weatherlink.com 1.10,2013-02-14 13:21:00,
2013-02-14 08:36:00,31.9,21.0,29.82,NNW,345,5.0,-999.0,65,-99.99,,,0.00,195,weatherlink.com 1.10,2013-02-14 13:36:00,
2013-02-14 08:51:00,33.0,20.0,29.82,NNW,327,8.0,-999.0,59,-99.99,,,0.00,366,weatherlink.com 1.10,2013-02-14 13:51:00,
2013-02-14 09:06:00,33.8,19.0,29.82,North,355,4.0,-999.0,56,-99.99,,,0.00,369,weatherlink.com 1.10,2013-02-14 14:06:00,
2013-02-14 09:21:00,34.1,19.0,29.83,WNW,292,5.0,-999.0,54,-99.99,,,0.00,183,weatherlink.com 1.10,2013-02-14 14:21:00,
2013-02-14 09:36:00,33.9,19.0,29.83,NW,314,0.0,-999.0,55,-99.99,,,0.00,320,weatherlink.com 1.10,2013-02-14 14:36:00,
2013-02-14 09:51:00,34.4,19.0,29.84,WNW,299,10.0,-999.0,53,-99.99,,,0.00,320,weatherlink.com 1.10,2013-02-14 14:51:00,
2013-02-14 10:06:00,33.7,18.0,29.84,NW,309,6.0,-999.0,53,-99.99,,,0.00,241,weatherlink.com 1.10,2013-02-14 15:06:00,
2013-02-14 10:21:00,34.4,19.0,29.85,WNW,302,10.0,-999.0,54,-99.99,,,0.00,276,weatherlink.com 1.10,2013-02-14 15:21:00,
2013-02-14 10:36:00,34.9,19.0,29.84,NNE,19,6.0,-999.0,53,-99.99,,,0.00,798,weatherlink.com 1.10,2013-02-14 15:36:00,
2013-02-14 10:51:00,34.4,19.0,29.85,West,265,12.0,-999.0,54,-99.99,,,0.00,343,weatherlink.com 1.10,2013-02-14 15:51:00,
2013-02-14 11:06:00,35.0,19.0,29.85,West,273,6.0,-999.0,53,-99.99,,,0.00,807,weatherlink.com 1.10,2013-02-14 16:06:00,
2013-02-14 11:21:00,35.0,20.0,29.85,NW,321,3.0,-999.0,55,-99.99,,,0.00,747,weatherlink.com 1.10,2013-02-14 16:21:00,
2013-02-14 11:36:00,34.8,18.0,29.85,West,280,10.0,-999.0,51,-99.99,,,0.00,622,weatherlink.com 1.10,2013-02-14 16:36:00,
2013-02-14 11:51:00,35.7,20.0,29.85,West,279,8.0,-999.0,53,-99.99,,,0.00,671,weatherlink.com 1.10,2013-02-14 16:51:00,
2013-02-14 12:06:00,36.1,19.0,29.85,WNW,303,5.0,-999.0,50,-99.99,,,0.00,628,weatherlink.com 1.10,2013-02-14 17:06:00,
2013-02-14 12:21:00,35.9,18.0,29.85,NW,321,5.0,-999.0,49,-99.99,,,0.00,622,weatherlink.com 1.10,2013-02-14 17:21:00,
2013-02-14 12:36:00,36.2,19.0,29.84,North,360,8.0,-999.0,49,-99.99,,,0.00,615,weatherlink.com 1.10,2013-02-14 17:36:00,
2013-02-14 12:51:00,37.1,19.0,29.84,NNW,336,6.0,-999.0,48,-99.99,,,0.00,612,weatherlink.com 1.10,2013-02-14 17:51:00,
2013-02-14 13:06:00,37.3,19.0,29.84,NNW,346,1.0,-999.0,47,-99.99,,,0.00,596,weatherlink.com 1.10,2013-02-14 18:06:00,
2013-02-14 13:21:00,37.4,19.0,29.84,WNW,298,8.0,-999.0,47,-99.99,,,0.00,578,weatherlink.com 1.10,2013-02-14 18:21:00,
2013-02-14 13:36:00,37.8,19.0,29.85,WNW,299,2.0,-999.0,47,-99.99,,,0.00,577,weatherlink.com 1.10,2013-02-14 18:36:00,
2013-02-14 13:51:00,37.6,19.0,29.85,West,272,10.0,-999.0,47,-99.99,,,0.00,540,weatherlink.com 1.10,2013-02-14 18:51:00,
2013-02-14 14:06:00,37.4,19.0,29.85,NNW,328,5.0,-999.0,47,-99.99,,,0.00,503,weatherlink.com 1.10,2013-02-14 19:06:00,
2013-02-14 14:21:00,37.7,19.0,29.85,WSW,252,4.0,-999.0,48,-99.99,,,0.00,473,weatherlink.com 1.10,2013-02-14 19:21:00,
2013-02-14 14:36:00,37.9,19.0,29.86,North,355,2.0,-999.0,47,-99.99,,,0.00,436,weatherlink.com 1.10,2013-02-14 19:36:00,
2013-02-14 14:51:00,38.4,19.0,29.86,NW,310,0.0,-999.0,46,-99.99,,,0.00,394,weatherlink.com 1.10,2013-02-14 19:51:00,
2013-02-14 15:06:00,38.6,19.0,29.86,WNW,286,1.0,-999.0,46,-99.99,,,0.00,357,weatherlink.com 1.10,2013-02-14 20:06:00,
2013-02-14 15:21:00,38.3,19.0,29.87,NNW,344,0.0,-999.0,46,-99.99,,,0.00,313,weatherlink.com 1.10,2013-02-14 20:21:00,
2013-02-14 15:36:00,38.3,19.0,29.87,NW,316,5.0,-999.0,46,-99.99,,,0.00,265,weatherlink.com 1.10,2013-02-14 20:36:00,
2013-02-14 15:51:00,38.3,19.0,29.88,NNW,338,0.0,-999.0,46,-99.99,,,0.00,207,weatherlink.com 1.10,2013-02-14 20:51:00,
2013-02-14 16:06:00,38.6,19.0,29.88,WSW,242,4.0,-999.0,45,-99.99,,,0.00,153,weatherlink.com 1.10,2013-02-14 21:06:00,
2013-02-14 16:21:00,38.6,19.0,29.88,WNW,295,5.0,-999.0,45,-99.99,,,0.00,98,weatherlink.com 1.10,2013-02-14 21:21:00,
2013-02-14 16:36:00,38.1,19.0,29.89,WNW,300,3.0,-999.0,46,-99.99,,,0.00,53,weatherlink.com 1.10,2013-02-14 21:36:00,
2013-02-14 16:51:00,36.8,20.0,29.91,NE,39,6.0,-999.0,50,-99.99,,,0.00,21,weatherlink.com 1.10,2013-02-14 21:51:00,
2013-02-14 17:06:00,35.3,20.0,29.91,NNE,19,2.0,-999.0,54,-99.99,,,0.00,7,weatherlink.com 1.10,2013-02-14 22:06:00,
2013-02-14 17:21:00,34.7,20.0,29.92,NNE,19,0.0,-999.0,55,-99.99,,,0.00,0,weatherlink.com 1.10,2013-02-14 22:21:00,
2013-02-14 17:36:00,34.4,20.0,29.93,NNE,19,4.0,-999.0,56,-99.99,,,0.00,0,weatherlink.com 1.10,2013-02-14 22:36:00,
2013-02-14 17:51:00,33.9,20.0,29.93,NNE,19,0.0,-999.0,57,-99.99,,,0.00,0,weatherlink.com 1.10,2013-02-14 22:51:00,
2013-02-14 18:06:00,33.4,20.0,29.94,NNE,19,0.0,-999.0,58,-99.99,,,0.00,0,weatherlink.com 1.10,2013-02-14 23:06:00,
2013-02-14 18:21:00,33.2,20.0,29.94,NNE,19,0.0,-999.0,58,-99.99,,,0.00,0,weatherlink.com 1.10,2013-02-14 23:21:00,
2013-02-14 18:36:00,32.9,20.0,29.95,NNE,19,0.0,-999.0,59,-99.99,,,0.00,0,weatherlink.com 1.10,2013-02-14 23:36:00,
2013-02-14 18:51:00,32.6,20.0,29.96,NNE,19,0.0,-999.0,59,-99.99,,,0.00,0,weatherlink.com 1.10,2013-02-14 23:51:00,
2013-02-14 19:06:00,32.3,20.0,29.96,NNE,19,0.0,-999.0,60,-99.99,,,0.00,0,weatherlink.com 1.10,2013-02-15 00:06:00,
2013-02-14 19:21:00,31.5,19.0,29.96,NNE,19,0.0,-999.0,61,-99.99,,,0.00,0,weatherlink.com 1.10,2013-02-15 00:21:00,
2013-02-14 19:36:00,31.2,19.0,29.97,NNE,19,0.0,-999.0,62,-99.99,,,0.00,0,weatherlink.com 1.10,2013-02-15 00:36:00,
2013-02-14 19:51:00,31.7,20.0,29.97,NNE,19,0.0,-999.0,61,-99.99,,,0.00,0,weatherlink.com 1.10,2013-02-15 00:51:00,
2013-02-14 20:06:00,31.7,20.0,29.97,NNE,19,0.0,-999.0,61,-99.99,,,0.00,0,weatherlink.com 1.10,2013-02-15 01:06:00,
2013-02-14 20:21:00,32.0,19.0,29.97,NNE,19,0.0,-999.0,60,-99.99,,,0.00,0,weatherlink.com 1.10,2013-02-15 01:21:00,
2013-02-14 20:36:00,31.6,19.0,29.97,NNE,19,0.0,-999.0,61,-99.99,,,0.00,0,weatherlink.com 1.10,2013-02-15 01:36:00,
2013-02-14 20:51:00,31.4,19.0,29.96,NNE,19,0.0,-999.0,61,-99.99,,,0.00,0,weatherlink.com 1.10,2013-02-15 01:51:00,
2013-02-14 21:06:00,31.2,19.0,29.96,NNE,19,0.0,-999.0,62,-99.99,,,0.00,0,weatherlink.com 1.10,2013-02-15 02:06:00,
2013-02-14 21:21:00,30.9,19.0,29.96,NNE,19,0.0,-999.0,62,-99.99,,,0.00,0,weatherlink.com 1.10,2013-02-15 02:21:00,
2013-02-14 21:36:00,31.0,19.0,29.96,NNE,19,0.0,-999.0,61,-99.99,,,0.00,0,weatherlink.com 1.10,2013-02-15 02:36:00,
2013-02-14 21:54:00,30.3,19.0,29.96,NNE,19,0.0,-999.0,63,-99.99,,,0.00,0,weatherlink.com 1.10,2013-02-15 02:54:00,
2013-02-14 22:06:00,29.7,19.0,29.96,NNE,19,0.0,-999.0,64,-99.99,,,0.00,0,weatherlink.com 1.10,2013-02-15 03:06:00,
2013-02-14 22:21:00,29.2,19.0,29.95,NNE,19,0.0,-999.0,65,-99.99,,,0.00,0,weatherlink.com 1.10,2013-02-15 03:21:00,
2013-02-14 22:36:00,29.2,19.0,29.96,NNE,19,0.0,-999.0,65,-99.99,,,0.00,0,weatherlink.com 1.10,2013-02-15 03:36:00,
2013-02-14 22:51:00,29.2,19.0,29.97,NNE,19,0.0,-999.0,66,-99.99,,,0.00,0,weatherlink.com 1.10,2013-02-15 03:51:00,
2013-02-14 23:06:00,28.8,19.0,29.97,NNE,19,2.0,-999.0,68,-99.99,,,0.00,0,weatherlink.com 1.10,2013-02-15 04:06:00,
2013-02-14 23:21:00,28.4,19.0,29.97,NNE,19,0.0,-999.0,69,-99.99,,,0.00,0,weatherlink.com 1.10,2013-02-15 04:21:00,
2013-02-14 23:36:00,28.9,19.0,29.97,NNE,19,0.0,-999.0,67,-99.99,,,0.00,0,weatherlink.com 1.10,2013-02-15 04:36:00,
2013-02-14 23:51:00,29.3,19.0,29.97,NNE,19,0.0,-999.0,66,-99.99,,,0.00,0,weatherlink.com 1.10,2013-02-15 04:51:00,